createdAt,value
2022-08-14T00:01:55.199Z,21.89
2022-08-14T00:04:34.410Z,21.99
2022-08-14T00:07:03.237Z,21.96
2022-08-14T00:09:33.072Z,22.00
2022-08-14T00:12:01.007Z,22.09
2022-08-14T00:14:29.571Z,22.20
2022-08-14T00:16:57.390Z,21.84
2022-08-14T00:19:28.793Z,21.89
2022-08-14T00:21:56.749Z,21.67
2022-08-14T00:24:29.018Z,21.55
2022-08-14T00:27:02.053Z,21.35
2022-08-14T00:29:39.846Z,21.32
2022-08-14T00:32:50.545Z,21.31
2022-08-14T00:35:01.213Z,21.31
2022-08-14T00:37:29.569Z,21.45
2022-08-14T00:40:00.450Z,21.32
2022-08-14T00:42:55.393Z,21.23
2022-08-14T00:45:19.367Z,21.17
2022-08-14T00:47:50.585Z,21.28
2022-08-14T00:50:21.974Z,21.18
2022-08-14T00:52:53.629Z,21.19
2022-08-14T00:55:21.972Z,21.23
2022-08-14T00:58:32.463Z,21.24
2022-08-14T01:01:02.173Z,21.21
2022-08-14T01:03:30.835Z,21.31
2022-08-14T01:06:00.747Z,21.25
2022-08-14T01:08:51.414Z,21.37
2022-08-14T01:11:23.592Z,21.41
2022-08-14T01:13:56.013Z,21.46
2022-08-14T01:16:30.994Z,21.15
2022-08-14T01:19:16.949Z,21.16
2022-08-14T01:21:52.723Z,21.07
2022-08-14T01:24:24.777Z,21.13
2022-08-14T01:27:00.522Z,21.16
2022-08-14T01:29:43.148Z,21.39
2022-08-14T01:32:23.306Z,21.41
2022-08-14T01:35:17.636Z,21.25
2022-08-14T01:37:46.796Z,21.23
2022-08-14T01:40:25.734Z,21.09
2022-08-14T01:43:02.566Z,20.76
2022-08-14T01:45:40.019Z,20.60
2022-08-14T01:48:13.495Z,20.65
2022-08-14T01:50:42.688Z,20.87
2022-08-14T01:53:13.691Z,20.79
2022-08-14T01:55:42.432Z,20.82
2022-08-14T01:58:19.851Z,21.00
2022-08-14T02:00:54.711Z,20.55
2022-08-14T02:03:24.441Z,20.31
2022-08-14T02:05:59.566Z,20.06
2022-08-14T02:08:35.044Z,20.17
2022-08-14T02:11:33.574Z,20.25
2022-08-14T02:14:07.055Z,20.44
2022-08-14T02:16:39.066Z,20.54
2022-08-14T02:19:09.536Z,20.55
2022-08-14T02:21:43.786Z,20.78
2022-08-14T02:24:40.196Z,20.97
2022-08-14T02:28:22.427Z,20.47
2022-08-14T02:30:00.171Z,20.42
2022-08-14T02:32:30.379Z,20.25
2022-08-14T02:35:17.973Z,20.27
2022-08-14T02:37:48.449Z,20.40
2022-08-14T02:40:18.800Z,20.38
2022-08-14T02:42:54.704Z,20.40
2022-08-14T02:45:25.633Z,20.16
2022-08-14T02:48:02.108Z,20.19
2022-08-14T02:50:33.703Z,20.26
2022-08-14T02:53:03.374Z,20.36
2022-08-14T02:55:33.259Z,20.16
2022-08-14T02:58:03.708Z,20.32
2022-08-14T03:00:35.419Z,20.39
2022-08-14T03:03:08.345Z,20.43
2022-08-14T03:05:41.329Z,20.32
2022-08-14T03:08:16.007Z,20.24
2022-08-14T03:10:50.137Z,20.49
2022-08-14T03:13:21.653Z,20.22
2022-08-14T03:15:56.085Z,20.67
2022-08-14T03:18:31.083Z,20.58
2022-08-14T03:21:02.118Z,20.47
2022-08-14T03:23:38.000Z,20.69
2022-08-14T03:26:12.564Z,20.66
2022-08-14T03:28:47.371Z,20.82
2022-08-14T03:31:15.583Z,20.64
2022-08-14T03:33:44.389Z,20.69
2022-08-14T03:37:38.142Z,21.00
2022-08-14T03:39:13.171Z,20.95
2022-08-14T03:41:50.354Z,20.92
2022-08-14T03:45:20.111Z,20.88
2022-08-14T03:47:06.664Z,20.96
2022-08-14T03:49:41.947Z,20.82
2022-08-14T03:52:37.561Z,20.77
2022-08-14T03:55:00.565Z,20.98
2022-08-14T03:57:32.881Z,21.11
2022-08-14T04:00:08.978Z,20.99
2022-08-14T04:02:46.759Z,20.99
2022-08-14T04:05:16.625Z,20.69
2022-08-14T04:07:49.998Z,20.63
2022-08-14T04:10:34.544Z,20.80
2022-08-14T04:13:06.318Z,20.73
2022-08-14T04:15:55.929Z,20.79
2022-08-14T04:18:24.113Z,20.93
2022-08-14T04:20:55.186Z,20.76
2022-08-14T04:23:29.409Z,20.91
2022-08-14T04:26:01.738Z,21.21
2022-08-14T04:29:02.226Z,21.23
2022-08-14T04:32:56.371Z,21.01
2022-08-14T04:34:16.971Z,21.07
2022-08-14T04:36:59.108Z,20.33
2022-08-14T04:39:46.576Z,20.12
2022-08-14T04:42:32.516Z,20.40
2022-08-14T04:45:01.761Z,20.44
2022-08-14T04:47:46.827Z,20.59
2022-08-14T04:50:33.649Z,20.70
2022-08-14T04:53:11.096Z,20.93
2022-08-14T04:55:39.077Z,21.12
2022-08-14T04:58:07.062Z,21.10
2022-08-14T05:00:52.396Z,21.46
2022-08-14T05:03:21.545Z,21.55
2022-08-14T05:05:55.986Z,21.54
2022-08-14T05:08:32.035Z,21.50
2022-08-14T05:11:13.900Z,21.66
2022-08-14T05:16:33.103Z,21.70
2022-08-14T05:19:17.683Z,21.86
2022-08-14T05:21:59.411Z,21.98
2022-08-14T05:24:28.944Z,22.04
2022-08-14T05:26:57.102Z,22.33
2022-08-14T05:29:27.503Z,22.35
2022-08-14T05:31:58.214Z,22.42
2022-08-14T05:34:31.901Z,22.39
2022-08-14T05:37:03.317Z,22.80
2022-08-14T05:39:31.897Z,22.94
2022-08-14T05:42:00.498Z,22.71
2022-08-14T05:44:30.860Z,22.95
2022-08-14T05:47:00.384Z,22.94
2022-08-14T05:49:33.177Z,22.98
2022-08-14T05:52:02.616Z,23.01
2022-08-14T05:54:35.502Z,23.32
2022-08-14T05:57:04.442Z,23.46
2022-08-14T05:59:39.385Z,23.86
2022-08-14T06:02:10.101Z,23.96
2022-08-14T06:04:38.521Z,24.02
2022-08-14T06:07:06.511Z,23.91
2022-08-14T06:09:35.776Z,23.95
2022-08-14T06:12:09.677Z,23.70
2022-08-14T06:14:37.877Z,24.18
2022-08-14T06:17:08.032Z,24.40
2022-08-14T06:19:37.270Z,24.79
2022-08-14T06:22:05.515Z,24.42
2022-08-14T06:24:34.970Z,24.78
2022-08-14T06:27:06.172Z,24.59
2022-08-14T06:29:38.931Z,24.84
2022-08-14T06:32:37.619Z,24.59
2022-08-14T06:35:03.613Z,24.62
2022-08-14T06:37:41.968Z,24.67
2022-08-14T06:40:25.674Z,24.88
2022-08-14T06:43:00.341Z,25.43
2022-08-14T06:45:31.839Z,25.70
2022-08-14T06:48:01.160Z,25.64
2022-08-14T06:50:31.676Z,26.20
2022-08-14T06:53:01.730Z,25.95
2022-08-14T06:55:29.643Z,26.47
2022-08-14T06:57:58.272Z,26.25
2022-08-14T07:00:31.166Z,26.37
2022-08-14T07:03:17.290Z,26.28
2022-08-14T07:05:57.672Z,26.05
2022-08-14T07:08:31.179Z,26.56
2022-08-14T07:11:01.532Z,26.66
2022-08-14T07:13:31.104Z,26.87
2022-08-14T07:16:05.490Z,26.89
2022-08-14T07:18:35.395Z,27.13
2022-08-14T07:21:07.418Z,27.11
2022-08-14T07:23:40.168Z,27.02
2022-08-14T07:26:13.546Z,27.39
2022-08-14T07:28:43.916Z,27.45
2022-08-14T07:31:13.720Z,27.20
2022-08-14T07:33:50.145Z,27.49
2022-08-14T07:36:27.748Z,27.02
2022-08-14T07:38:59.071Z,27.71
2022-08-14T07:41:33.959Z,27.89
2022-08-14T07:44:29.059Z,27.96
2022-08-14T07:46:51.731Z,27.88
2022-08-14T07:49:19.919Z,27.88
2022-08-14T07:51:50.749Z,27.90
2022-08-14T07:54:23.472Z,28.02
2022-08-14T07:56:59.770Z,28.28
2022-08-14T07:59:42.202Z,28.41
2022-08-14T08:02:18.657Z,28.40
2022-08-14T08:04:50.515Z,27.95
2022-08-14T08:07:24.077Z,28.31
2022-08-14T08:09:57.063Z,28.66
2022-08-14T08:12:28.139Z,29.20
2022-08-14T08:15:05.974Z,29.10
2022-08-14T08:17:42.293Z,28.95
2022-08-14T08:20:19.985Z,29.38
2022-08-14T08:22:55.632Z,29.09
2022-08-14T08:25:24.320Z,29.61
2022-08-14T08:27:57.304Z,29.43
2022-08-14T08:30:25.828Z,29.53
2022-08-14T08:32:56.281Z,29.82
2022-08-14T08:35:46.485Z,29.67
2022-08-14T08:39:17.840Z,29.78
2022-08-14T08:41:10.860Z,30.00
2022-08-14T08:43:46.791Z,30.55
2022-08-14T08:46:23.731Z,30.26
2022-08-14T08:51:31.104Z,30.17
2022-08-14T08:54:05.035Z,30.55
2022-08-14T08:56:39.852Z,30.43
2022-08-14T08:59:20.321Z,30.43
2022-08-14T09:01:51.577Z,30.45
2022-08-14T09:04:24.758Z,31.00
2022-08-14T09:07:10.318Z,30.49
2022-08-14T09:09:53.617Z,30.48
2022-08-14T09:12:26.826Z,31.04
2022-08-14T09:14:55.772Z,30.65
2022-08-14T09:17:25.836Z,30.76
2022-08-14T09:19:54.492Z,30.99
2022-08-14T09:22:35.742Z,31.44
2022-08-14T09:25:07.963Z,30.91
2022-08-14T09:27:37.433Z,31.21
2022-08-14T09:30:31.180Z,31.50
2022-08-14T09:33:19.495Z,31.25
2022-08-14T09:36:04.417Z,32.09
2022-08-14T09:38:45.646Z,32.01
2022-08-14T09:42:20.280Z,31.92
2022-08-14T09:44:42.016Z,32.14
2022-08-14T09:47:15.354Z,32.28
2022-08-14T09:49:43.502Z,31.72
2022-08-14T09:52:23.640Z,31.67
2022-08-14T09:55:01.420Z,31.93
2022-08-14T09:57:32.593Z,33.06
2022-08-14T10:00:28.635Z,32.94
2022-08-14T10:03:05.114Z,33.92
2022-08-14T10:05:38.019Z,33.99
2022-08-14T10:08:22.009Z,34.05
2022-08-14T10:11:02.832Z,34.17
2022-08-14T10:13:43.242Z,34.40
2022-08-14T10:16:27.617Z,35.09
2022-08-14T10:19:09.547Z,34.87
2022-08-14T10:21:38.553Z,35.56
2022-08-14T10:24:36.191Z,35.75
2022-08-14T10:27:06.477Z,35.86
2022-08-14T10:29:38.396Z,35.67
2022-08-14T10:32:17.788Z,35.35
2022-08-14T10:35:13.749Z,35.98
2022-08-14T10:37:48.323Z,35.32
2022-08-14T10:40:38.087Z,35.59
2022-08-14T10:43:18.418Z,35.35
2022-08-14T10:46:03.369Z,35.71
2022-08-14T10:48:58.332Z,35.77
2022-08-14T10:51:27.333Z,36.49
2022-08-14T10:54:01.874Z,35.80
2022-08-14T10:56:45.563Z,35.87
2022-08-14T10:59:13.842Z,36.40
2022-08-14T11:01:43.297Z,35.80
2022-08-14T11:04:30.116Z,35.91
2022-08-14T11:06:59.845Z,35.37
2022-08-14T11:09:31.515Z,35.68
2022-08-14T11:12:34.765Z,36.44
2022-08-14T11:14:59.866Z,36.31
2022-08-14T11:17:32.870Z,35.95
2022-08-14T11:20:02.647Z,35.97
2022-08-14T11:22:56.510Z,35.62
2022-08-14T11:25:23.623Z,36.16
2022-08-14T11:27:53.268Z,36.64
2022-08-14T11:30:49.832Z,36.35
2022-08-14T11:33:14.055Z,36.94
2022-08-14T11:35:49.770Z,36.44
2022-08-14T11:38:21.437Z,36.54
2022-08-14T11:40:49.473Z,37.04
2022-08-14T11:43:18.411Z,36.22
2022-08-14T11:45:52.166Z,36.96
2022-08-14T11:49:03.016Z,36.58
2022-08-14T11:51:14.565Z,36.12
2022-08-14T11:53:44.671Z,36.28
2022-08-14T11:56:13.822Z,35.90
2022-08-14T11:58:42.445Z,36.29
2022-08-14T12:01:10.908Z,36.38
2022-08-14T12:03:52.174Z,35.97
2022-08-14T12:06:29.267Z,36.59
2022-08-14T12:09:08.804Z,36.90
2022-08-14T12:11:47.027Z,36.33
2022-08-14T12:14:29.954Z,37.22
2022-08-14T12:17:05.099Z,37.09
2022-08-14T12:19:51.255Z,37.38
2022-08-14T12:22:34.486Z,37.77
2022-08-14T12:25:06.118Z,35.78
2022-08-14T12:27:52.689Z,37.24
2022-08-14T12:30:34.392Z,36.88
2022-08-14T12:33:08.710Z,37.43
2022-08-14T12:35:39.702Z,37.23
2022-08-14T12:38:09.175Z,36.97
2022-08-14T12:40:48.968Z,36.97
2022-08-14T12:43:19.652Z,37.16
2022-08-14T12:45:51.200Z,37.86
2022-08-14T12:48:21.729Z,36.97
2022-08-14T12:51:00.910Z,37.21
2022-08-14T12:53:38.356Z,37.58
2022-08-14T12:56:22.646Z,36.50
2022-08-14T12:58:57.849Z,35.80
2022-08-14T13:01:28.723Z,37.43
2022-08-14T13:04:07.257Z,37.28
2022-08-14T13:06:37.122Z,37.59
2022-08-14T13:09:10.987Z,37.18
2022-08-14T13:11:44.836Z,37.35
2022-08-14T13:14:17.520Z,37.34
2022-08-14T13:16:50.207Z,37.20
2022-08-14T13:19:19.867Z,37.05
2022-08-14T13:22:05.721Z,37.15
2022-08-14T13:24:39.936Z,37.03
2022-08-14T13:27:09.752Z,37.30
2022-08-14T13:29:46.634Z,37.77
2022-08-14T13:32:15.129Z,37.03
2022-08-14T13:34:45.373Z,37.71
2022-08-14T13:37:17.050Z,36.11
2022-08-14T13:39:56.254Z,36.73
2022-08-14T13:42:26.357Z,37.03
2022-08-14T13:44:55.676Z,37.04
2022-08-14T13:47:30.326Z,36.14
2022-08-14T13:50:02.736Z,37.15
2022-08-14T13:52:51.265Z,35.76
2022-08-14T13:55:23.712Z,36.46
2022-08-14T13:57:59.476Z,36.22
2022-08-14T14:00:35.440Z,36.11
2022-08-14T14:03:08.658Z,36.20
2022-08-14T14:05:53.008Z,36.97
2022-08-14T14:08:46.658Z,36.46
2022-08-14T14:11:16.039Z,36.24
2022-08-14T14:13:45.868Z,34.93
2022-08-14T14:16:25.976Z,35.41
2022-08-14T14:19:09.732Z,34.73
2022-08-14T14:21:40.685Z,34.86
2022-08-14T14:24:15.206Z,35.01
2022-08-14T14:26:46.794Z,34.81
2022-08-14T14:29:15.011Z,35.25
2022-08-14T14:31:48.394Z,34.54
2022-08-14T14:34:29.348Z,34.27
2022-08-14T14:37:04.768Z,34.18
2022-08-14T14:39:37.955Z,33.97
2022-08-14T14:42:31.616Z,33.81
2022-08-14T14:45:05.843Z,34.41
2022-08-14T14:47:35.220Z,33.71
2022-08-14T14:50:05.018Z,34.00
2022-08-14T14:52:39.493Z,33.91
2022-08-14T14:55:12.913Z,33.29
2022-08-14T14:57:45.778Z,33.48
2022-08-14T15:00:21.246Z,33.31
2022-08-14T15:02:51.560Z,32.93
2022-08-14T15:05:21.170Z,33.21
2022-08-14T15:07:51.113Z,33.04
2022-08-14T15:10:26.694Z,32.41
2022-08-14T15:13:03.695Z,32.77
2022-08-14T15:15:33.162Z,33.17
2022-08-14T15:18:01.567Z,32.82
2022-08-14T15:20:31.220Z,32.55
2022-08-14T15:23:00.979Z,32.50
2022-08-14T15:25:42.507Z,33.05
2022-08-14T15:28:13.082Z,33.05
2022-08-14T15:30:51.000Z,32.23
2022-08-14T15:34:33.775Z,32.66
2022-08-14T15:36:29.501Z,32.54
2022-08-14T15:38:58.918Z,32.78
2022-08-14T15:41:33.814Z,33.08
2022-08-14T15:44:24.626Z,32.79
2022-08-14T15:46:55.763Z,33.24
2022-08-14T15:49:28.575Z,33.52
2022-08-14T15:52:03.171Z,33.67
2022-08-14T15:54:32.390Z,33.40
2022-08-14T15:57:04.588Z,32.75
2022-08-14T15:59:53.952Z,32.70
2022-08-14T16:02:24.516Z,33.31
2022-08-14T16:04:55.550Z,33.19
2022-08-14T16:07:25.261Z,32.89
2022-08-14T16:10:25.283Z,32.56
2022-08-14T16:12:47.618Z,32.21
2022-08-14T16:15:16.713Z,31.09
2022-08-14T16:17:45.966Z,31.52
2022-08-14T16:20:40.888Z,31.37
2022-08-14T16:25:52.742Z,31.04
2022-08-14T16:28:27.534Z,30.60
2022-08-14T16:30:56.734Z,30.51
2022-08-14T16:36:30.507Z,30.12
2022-08-14T16:39:07.463Z,30.09
2022-08-14T16:41:36.585Z,29.87
2022-08-14T16:44:21.798Z,29.57
2022-08-14T16:47:03.172Z,30.08
2022-08-14T16:50:02.972Z,29.99
2022-08-14T16:52:43.704Z,29.93
2022-08-14T16:55:08.535Z,29.91
2022-08-14T16:57:50.013Z,30.04
2022-08-14T17:00:32.608Z,30.42
2022-08-14T17:03:04.039Z,29.89
2022-08-14T17:05:38.125Z,29.67
2022-08-14T17:08:32.737Z,29.49
2022-08-14T17:11:10.159Z,29.51
2022-08-14T17:13:58.229Z,29.29
2022-08-14T17:16:37.055Z,29.08
2022-08-14T17:19:09.820Z,30.06
2022-08-14T17:21:42.000Z,30.08
2022-08-14T17:24:56.788Z,30.34
2022-08-14T17:27:04.096Z,30.43
2022-08-14T17:29:33.774Z,30.35
2022-08-14T17:32:28.180Z,31.02
2022-08-14T17:35:01.763Z,30.51
2022-08-14T17:37:34.319Z,30.48
2022-08-14T17:40:13.749Z,30.39
2022-08-14T17:43:01.676Z,30.28
2022-08-14T17:45:45.461Z,30.68
2022-08-14T17:49:14.228Z,30.41
2022-08-14T17:51:23.752Z,30.23
2022-08-14T17:54:02.933Z,29.86
2022-08-14T17:56:32.252Z,29.59
2022-08-14T17:59:03.990Z,30.21
2022-08-14T18:01:37.646Z,29.42
2022-08-14T18:04:25.173Z,29.51
2022-08-14T18:07:16.290Z,28.95
2022-08-14T18:09:56.877Z,29.14
2022-08-14T18:12:32.346Z,28.87
2022-08-14T18:15:14.782Z,28.68
2022-08-14T18:17:52.973Z,28.83
2022-08-14T18:21:23.956Z,28.43
2022-08-14T18:23:14.540Z,27.98
2022-08-14T18:25:49.416Z,27.71
2022-08-14T18:28:51.061Z,27.87
2022-08-14T18:31:42.125Z,27.38
2022-08-14T18:34:32.411Z,27.27
2022-08-14T18:37:16.983Z,26.98
2022-08-14T18:40:03.224Z,26.81
2022-08-14T18:42:45.393Z,26.75
2022-08-14T18:45:18.758Z,26.56
2022-08-14T18:48:19.346Z,26.84
2022-08-14T18:50:52.280Z,26.40
2022-08-14T18:53:24.353Z,26.28
2022-08-14T18:55:55.677Z,26.20
2022-08-14T18:58:31.091Z,26.14
2022-08-14T19:01:04.498Z,25.86
2022-08-14T19:03:57.705Z,26.12
2022-08-14T19:06:56.255Z,25.43
2022-08-14T19:09:56.322Z,25.58
2022-08-14T19:13:03.048Z,25.65
2022-08-14T19:15:34.235Z,25.54
2022-08-14T19:18:19.721Z,25.34
2022-08-14T19:20:56.504Z,25.31
2022-08-14T19:23:42.746Z,25.46
2022-08-14T19:26:36.774Z,25.27
2022-08-14T19:29:23.983Z,25.17
2022-08-14T19:31:55.322Z,25.28
2022-08-14T19:34:52.111Z,25.02
2022-08-14T19:37:45.877Z,25.31
2022-08-14T19:40:19.441Z,25.19
2022-08-14T19:42:50.270Z,24.85
2022-08-14T19:45:18.728Z,24.91
2022-08-14T19:47:49.910Z,24.72
2022-08-14T19:50:30.976Z,25.07
2022-08-14T19:53:16.496Z,24.81
2022-08-14T19:55:55.558Z,24.74
2022-08-14T19:58:37.280Z,24.63
2022-08-14T20:01:08.526Z,24.60
2022-08-14T20:04:00.072Z,24.92
2022-08-14T20:06:46.434Z,24.85
2022-08-14T20:11:08.262Z,24.87
2022-08-14T20:12:04.874Z,24.51
2022-08-14T20:14:37.752Z,24.62
2022-08-14T20:17:08.554Z,24.45
2022-08-14T20:19:37.548Z,24.42
2022-08-14T20:22:36.651Z,24.38
2022-08-14T20:25:11.914Z,24.48
2022-08-14T20:27:44.066Z,24.12
2022-08-14T20:30:37.607Z,24.23
2022-08-14T20:33:10.649Z,24.42
2022-08-14T20:35:44.044Z,24.24
2022-08-14T20:38:29.424Z,24.28
2022-08-14T20:41:01.570Z,24.18
2022-08-14T20:43:54.280Z,24.22
2022-08-14T20:46:29.539Z,23.99
2022-08-14T20:49:00.194Z,23.93
2022-08-14T20:51:37.344Z,23.90
2022-08-14T20:54:07.536Z,24.06
2022-08-14T20:56:38.083Z,23.74
2022-08-14T20:59:18.085Z,23.97
2022-08-14T21:01:51.859Z,23.87
2022-08-14T21:04:27.089Z,23.46
2022-08-14T21:07:24.857Z,23.69
2022-08-14T21:10:06.119Z,23.78
2022-08-14T21:12:36.040Z,23.83
2022-08-14T21:15:09.922Z,23.82
2022-08-14T21:17:41.483Z,23.69
2022-08-14T21:20:26.108Z,23.66
2022-08-14T21:23:00.560Z,23.62
2022-08-14T21:25:31.709Z,23.78
2022-08-14T21:28:03.299Z,23.89
2022-08-14T21:30:51.434Z,23.80
2022-08-14T21:33:23.526Z,23.81
2022-08-14T21:35:54.853Z,23.81
2022-08-14T21:38:34.310Z,23.91
2022-08-14T21:41:43.556Z,23.66
2022-08-14T21:44:17.607Z,23.65
2022-08-14T21:46:53.631Z,23.60
2022-08-14T21:49:25.639Z,23.62
2022-08-14T21:52:51.795Z,23.47
2022-08-14T21:54:55.604Z,23.46
2022-08-14T21:57:53.664Z,23.67
2022-08-14T22:00:35.278Z,23.54
2022-08-14T22:03:05.414Z,23.58
2022-08-14T22:05:35.087Z,23.64
2022-08-14T22:08:06.821Z,23.40
2022-08-14T22:10:35.856Z,23.37
2022-08-14T22:13:05.313Z,23.25
2022-08-14T22:15:35.484Z,22.95
2022-08-14T22:18:04.465Z,23.04
2022-08-14T22:20:36.004Z,22.84
2022-08-14T22:23:08.592Z,22.95
2022-08-14T22:25:41.271Z,22.98
2022-08-14T22:28:12.069Z,22.95
2022-08-14T22:30:41.548Z,22.92
2022-08-14T22:33:13.374Z,23.06
2022-08-14T22:35:43.634Z,22.84
2022-08-14T22:38:37.073Z,22.91
2022-08-14T22:41:25.464Z,22.96
2022-08-14T22:43:51.094Z,23.16
2022-08-14T22:46:20.288Z,22.72
2022-08-14T22:48:49.447Z,22.28
2022-08-14T22:51:22.467Z,22.05
2022-08-14T22:53:53.173Z,22.01
2022-08-14T22:56:30.298Z,21.93
2022-08-14T22:59:00.141Z,21.94
2022-08-14T23:01:46.159Z,22.25
2022-08-14T23:04:35.519Z,22.01
2022-08-14T23:07:14.718Z,21.76
2022-08-14T23:09:56.446Z,21.28
2022-08-14T23:12:27.717Z,20.91
2022-08-14T23:15:05.994Z,20.94
2022-08-14T23:17:38.633Z,21.17
2022-08-14T23:20:18.546Z,21.27
2022-08-14T23:22:51.477Z,21.67
2022-08-14T23:25:57.484Z,21.87
2022-08-14T23:28:34.556Z,21.86
2022-08-14T23:30:57.328Z,21.90
2022-08-14T23:33:29.143Z,21.71
2022-08-14T23:35:59.348Z,21.57
2022-08-14T23:38:30.338Z,21.59
2022-08-14T23:41:00.749Z,21.96
2022-08-14T23:43:31.035Z,22.19
2022-08-14T23:46:00.500Z,22.47
2022-08-14T23:48:29.250Z,22.28
2022-08-14T23:50:58.757Z,22.28
2022-08-14T23:53:47.755Z,22.11
2022-08-14T23:56:30.193Z,21.94
2022-08-14T23:59:01.023Z,21.83
